createdAt,value
2018-12-13T00:00:08.490Z,929.31
2018-12-13T00:00:21.413Z,929.27
2018-12-13T00:00:34.397Z,929.29
2018-12-13T00:00:47.303Z,929.3
2018-12-13T00:00:59.801Z,929.31
2018-12-13T00:01:12.760Z,929.3
2018-12-13T00:01:25.715Z,929.32
2018-12-13T00:01:38.184Z,929.3
2018-12-13T00:01:51.141Z,929.3
2018-12-13T00:02:05.051Z,929.3
2018-12-13T00:02:18.027Z,929.29
2018-12-13T00:02:30.941Z,929.32
2018-12-13T00:02:43.914Z,929.32
2018-12-13T00:02:56.828Z,929.32
2018-12-13T00:03:09.790Z,929.38
2018-12-13T00:03:22.748Z,929.36
2018-12-13T00:03:35.706Z,929.37
2018-12-13T00:03:48.647Z,929.39
2018-12-13T00:04:01.570Z,929.39
2018-12-13T00:04:14.508Z,929.41
2018-12-13T00:04:27.476Z,929.44
2018-12-13T00:04:39.979Z,929.43
2018-12-13T00:04:52.881Z,929.41
2018-12-13T00:05:05.803Z,929.39
2018-12-13T00:05:18.281Z,929.42
2018-12-13T00:05:31.196Z,929.43
2018-12-13T00:05:44.117Z,929.4
2018-12-13T00:05:57.059Z,929.44
2018-12-13T00:06:09.994Z,929.37
2018-12-13T00:06:22.894Z,929.4
2018-12-13T00:06:40.410Z,929.42
2018-12-13T00:06:53.389Z,929.42
2018-12-13T00:07:06.371Z,929.39
2018-12-13T00:07:19.305Z,929.38
2018-12-13T00:07:32.221Z,929.43
2018-12-13T00:07:45.140Z,929.41
2018-12-13T00:07:58.088Z,929.39
2018-12-13T00:08:11.068Z,929.37
2018-12-13T00:08:24.006Z,929.38
2018-12-13T00:08:36.907Z,929.36
2018-12-13T00:08:49.841Z,929.37
2018-12-13T00:09:02.801Z,929.42
2018-12-13T00:09:15.741Z,929.36
2018-12-13T00:09:28.681Z,929.4
2018-12-13T00:09:41.624Z,929.37
2018-12-13T00:09:54.538Z,929.35
2018-12-13T00:10:07.494Z,929.4
2018-12-13T00:10:20.415Z,929.39
2018-12-13T00:10:33.342Z,929.4
2018-12-13T00:10:46.227Z,929.4
2018-12-13T00:10:58.679Z,929.38
2018-12-13T00:11:11.624Z,929.41
2018-12-13T00:11:24.600Z,929.39
2018-12-13T00:11:37.532Z,929.38
2018-12-13T00:11:50.469Z,929.39
2018-12-13T00:12:03.415Z,929.38
2018-12-13T00:12:16.346Z,929.37
2018-12-13T00:12:29.281Z,929.39
2018-12-13T00:12:42.219Z,929.37
2018-12-13T00:12:55.117Z,929.36
2018-12-13T00:13:07.636Z,929.34
2018-12-13T00:13:20.537Z,929.34
2018-12-13T00:13:33.502Z,929.38
2018-12-13T00:13:46.427Z,929.37
2018-12-13T00:13:59.375Z,929.33
2018-12-13T00:14:12.297Z,929.38
2018-12-13T00:14:25.216Z,929.36
2018-12-13T00:14:38.153Z,929.37
2018-12-13T00:14:51.111Z,929.41
2018-12-13T00:15:04.047Z,929.39
2018-12-13T00:15:16.996Z,929.36
2018-12-13T00:15:29.931Z,929.33
2018-12-13T00:15:42.834Z,929.35
2018-12-13T00:15:55.759Z,929.35
2018-12-13T00:16:08.647Z,929.33
2018-12-13T00:16:21.550Z,929.35
2018-12-13T00:16:34.485Z,929.39
2018-12-13T00:16:47.427Z,929.37
2018-12-13T00:17:00.338Z,929.37
2018-12-13T00:17:13.570Z,929.37
2018-12-13T00:17:26.499Z,929.36
2018-12-13T00:17:39.482Z,929.39
2018-12-13T00:17:52.364Z,929.36
2018-12-13T00:18:05.313Z,929.39
2018-12-13T00:18:18.220Z,929.37
2018-12-13T00:18:31.113Z,929.4
2018-12-13T00:18:44.071Z,929.36
2018-12-13T00:18:56.543Z,929.4
2018-12-13T00:19:09.528Z,929.35
2018-12-13T00:19:22.426Z,929.43
2018-12-13T00:19:35.350Z,929.46
2018-12-13T00:19:48.389Z,929.36
2018-12-13T00:20:01.375Z,929.44
2018-12-13T00:20:14.365Z,929.43
2018-12-13T00:20:27.321Z,929.4
2018-12-13T00:20:40.310Z,929.47
2018-12-13T00:20:53.278Z,929.46
2018-12-13T00:21:06.190Z,929.41
2018-12-13T00:21:19.145Z,929.48
2018-12-13T00:21:32.076Z,929.46
2018-12-13T00:21:45.005Z,929.48
2018-12-13T00:21:57.898Z,929.5
2018-12-13T00:22:10.772Z,929.49
2018-12-13T00:22:23.684Z,929.51
2018-12-13T00:22:36.616Z,929.53
2018-12-13T00:22:49.513Z,929.51
2018-12-13T00:23:02.462Z,929.52
2018-12-13T00:23:14.943Z,929.53
2018-12-13T00:23:27.925Z,929.57
2018-12-13T00:23:40.875Z,929.58
2018-12-13T00:23:53.817Z,929.56
2018-12-13T00:24:06.728Z,929.53
2018-12-13T00:24:19.688Z,929.57
2018-12-13T00:24:32.628Z,929.59
2018-12-13T00:24:45.542Z,929.57
2018-12-13T00:24:58.490Z,929.56
2018-12-13T00:25:11.428Z,929.61
2018-12-13T00:25:24.416Z,929.6
2018-12-13T00:25:37.361Z,929.59
2018-12-13T00:25:50.331Z,929.6
2018-12-13T00:26:03.260Z,929.61
2018-12-13T00:26:16.163Z,929.62
2018-12-13T00:26:29.108Z,929.61
2018-12-13T00:26:42.053Z,929.64
2018-12-13T00:26:55.013Z,929.62
2018-12-13T00:27:07.913Z,929.59
2018-12-13T00:27:20.824Z,929.62
2018-12-13T00:27:33.785Z,929.63
2018-12-13T00:27:46.728Z,929.62
2018-12-13T00:27:59.656Z,929.66
2018-12-13T00:28:12.559Z,929.63
2018-12-13T00:28:25.471Z,929.63
2018-12-13T00:28:38.368Z,929.68
2018-12-13T00:28:51.308Z,929.65
2018-12-13T00:29:04.241Z,929.66
2018-12-13T00:29:17.158Z,929.64
2018-12-13T00:29:30.102Z,929.61
2018-12-13T00:29:43.046Z,929.66
2018-12-13T00:29:55.946Z,929.65
2018-12-13T00:30:08.916Z,929.6
2018-12-13T00:30:21.851Z,929.62
2018-12-13T00:30:34.761Z,929.66
2018-12-13T00:30:47.685Z,929.66
2018-12-13T00:31:00.602Z,929.63
2018-12-13T00:31:13.510Z,929.62
2018-12-13T00:31:26.443Z,929.61
2018-12-13T00:31:39.347Z,929.6
2018-12-13T00:31:52.267Z,929.64
2018-12-13T00:32:04.758Z,929.61
2018-12-13T00:32:18.288Z,929.58
2018-12-13T00:32:31.250Z,929.57
2018-12-13T00:32:44.210Z,929.58
2018-12-13T00:32:57.119Z,929.57
2018-12-13T00:33:10.012Z,929.58
2018-12-13T00:33:22.954Z,929.58
2018-12-13T00:33:35.886Z,929.57
2018-12-13T00:33:48.835Z,929.56
2018-12-13T00:34:01.823Z,929.56
2018-12-13T00:34:14.766Z,929.55
2018-12-13T00:34:27.767Z,929.53
2018-12-13T00:34:40.712Z,929.55
2018-12-13T00:34:53.625Z,929.51
2018-12-13T00:35:06.545Z,929.53
2018-12-13T00:35:19.525Z,929.55
2018-12-13T00:35:32.474Z,929.52
2018-12-13T00:35:45.428Z,929.51
2018-12-13T00:35:58.370Z,929.52
2018-12-13T00:36:11.346Z,929.51
2018-12-13T00:36:24.263Z,929.53
2018-12-13T00:36:43.630Z,929.5
2018-12-13T00:36:56.562Z,929.51
2018-12-13T00:37:09.494Z,929.49
2018-12-13T00:37:22.432Z,929.49
2018-12-13T00:37:35.365Z,929.48
2018-12-13T00:37:48.319Z,929.54
2018-12-13T00:38:01.247Z,929.53
2018-12-13T00:38:14.221Z,929.5
2018-12-13T00:38:27.191Z,929.51
2018-12-13T00:38:40.269Z,929.52
2018-12-13T00:38:53.221Z,929.49
2018-12-13T00:39:06.179Z,929.46
2018-12-13T00:39:19.144Z,929.49
2018-12-13T00:39:32.110Z,929.46
2018-12-13T00:39:45.073Z,929.46
2018-12-13T00:39:58.071Z,929.46
2018-12-13T00:40:10.985Z,929.45
2018-12-13T00:40:23.906Z,929.47
2018-12-13T00:40:36.848Z,929.48
2018-12-13T00:40:49.774Z,929.48
2018-12-13T00:41:02.713Z,929.48
2018-12-13T00:41:15.678Z,929.5
2018-12-13T00:41:28.625Z,929.48
2018-12-13T00:41:41.588Z,929.48
2018-12-13T00:41:54.516Z,929.49
2018-12-13T00:42:07.446Z,929.47
2018-12-13T00:42:20.662Z,929.46
2018-12-13T00:42:33.637Z,929.42
2018-12-13T00:42:46.586Z,929.43
2018-12-13T00:42:59.540Z,929.44
2018-12-13T00:43:12.478Z,929.42
2018-12-13T00:43:25.434Z,929.44
2018-12-13T00:43:38.376Z,929.43
2018-12-13T00:43:51.287Z,929.46
2018-12-13T00:44:04.230Z,929.47
2018-12-13T00:44:17.158Z,929.46
2018-12-13T00:44:30.097Z,929.46
2018-12-13T00:44:43.016Z,929.46
2018-12-13T00:44:55.967Z,929.47
2018-12-13T00:45:08.919Z,929.43
2018-12-13T00:45:21.896Z,929.42
2018-12-13T00:45:34.810Z,929.45
2018-12-13T00:45:47.735Z,929.47
2018-12-13T00:46:00.661Z,929.4
2018-12-13T00:46:13.613Z,929.48
2018-12-13T00:46:26.512Z,929.44
2018-12-13T00:46:39.462Z,929.46
2018-12-13T00:46:52.416Z,929.44
2018-12-13T00:47:05.342Z,929.43
2018-12-13T00:47:18.262Z,929.45
2018-12-13T00:47:31.194Z,929.41
2018-12-13T00:47:44.139Z,929.45
2018-12-13T00:47:57.066Z,929.41
2018-12-13T00:48:10.011Z,929.45
2018-12-13T00:48:22.957Z,929.45
2018-12-13T00:48:35.918Z,929.4
2018-12-13T00:48:48.896Z,929.42
2018-12-13T00:49:01.868Z,929.41
2018-12-13T00:49:14.859Z,929.41
2018-12-13T00:49:27.857Z,929.45
2018-12-13T00:49:40.806Z,929.43
2018-12-13T00:49:53.753Z,929.4
2018-12-13T00:50:06.716Z,929.4
2018-12-13T00:50:19.206Z,929.4
2018-12-13T00:50:32.109Z,929.41
2018-12-13T00:50:45.085Z,929.41
2018-12-13T00:50:57.991Z,929.38
2018-12-13T00:51:10.900Z,929.39
2018-12-13T00:51:23.814Z,929.36
2018-12-13T00:51:36.825Z,929.36
2018-12-13T00:51:49.774Z,929.37
2018-12-13T00:52:02.650Z,929.36
2018-12-13T00:52:15.118Z,929.38
2018-12-13T00:52:28.013Z,929.35
2018-12-13T00:52:40.968Z,929.36
2018-12-13T00:52:53.886Z,929.34
2018-12-13T00:53:06.815Z,929.37
2018-12-13T00:53:19.710Z,929.29
2018-12-13T00:53:32.631Z,929.32
2018-12-13T00:53:45.100Z,929.37
2018-12-13T00:53:58.037Z,929.38
2018-12-13T00:54:10.952Z,929.31
2018-12-13T00:54:23.863Z,929.35
2018-12-13T00:54:36.784Z,929.32
2018-12-13T00:54:49.715Z,929.26
2018-12-13T00:55:02.636Z,929.29
2018-12-13T00:55:15.570Z,929.27
2018-12-13T00:55:28.490Z,929.26
2018-12-13T00:55:41.438Z,929.27
2018-12-13T00:55:54.432Z,929.31
2018-12-13T00:56:07.342Z,929.29
2018-12-13T00:56:20.318Z,929.27
2018-12-13T00:56:33.232Z,929.26
2018-12-13T00:56:46.138Z,929.23
2018-12-13T00:56:59.033Z,929.25
2018-12-13T00:57:11.939Z,929.26
2018-12-13T00:57:24.443Z,929.23
2018-12-13T00:57:37.420Z,929.24
2018-12-13T00:57:50.371Z,929.25
2018-12-13T00:58:03.275Z,929.22
2018-12-13T00:58:16.144Z,929.23
2018-12-13T00:58:29.093Z,929.24
2018-12-13T00:58:42.015Z,929.22
2018-12-13T00:58:54.891Z,929.24
2018-12-13T00:59:07.838Z,929.22
2018-12-13T00:59:20.752Z,929.22
2018-12-13T00:59:33.673Z,929.21
2018-12-13T00:59:46.632Z,929.22
2018-12-13T00:59:59.589Z,929.19
2018-12-13T01:00:12.513Z,929.16
2018-12-13T01:00:25.475Z,929.2
2018-12-13T01:00:38.410Z,929.18
2018-12-13T01:00:51.371Z,929.19
2018-12-13T01:01:04.335Z,929.22
2018-12-13T01:01:17.299Z,929.2
2018-12-13T01:01:30.232Z,929.17
2018-12-13T01:01:43.181Z,929.21
2018-12-13T01:01:56.127Z,929.19
2018-12-13T01:02:09.057Z,929.2
2018-12-13T01:02:22.926Z,929.22
2018-12-13T01:02:35.845Z,929.23
2018-12-13T01:02:48.824Z,929.18
2018-12-13T01:03:01.731Z,929.21
2018-12-13T01:03:14.613Z,929.18
2018-12-13T01:03:27.528Z,929.19
2018-12-13T01:03:40.493Z,929.15
2018-12-13T01:03:53.453Z,929.19
2018-12-13T01:04:06.386Z,929.16
2018-12-13T01:04:19.316Z,929.16
2018-12-13T01:04:32.207Z,929.14
2018-12-13T01:04:44.706Z,929.17
2018-12-13T01:04:57.666Z,929.17
2018-12-13T01:05:10.658Z,929.16
2018-12-13T01:05:23.631Z,929.15
2018-12-13T01:05:36.558Z,929.18
2018-12-13T01:05:49.465Z,929.18
2018-12-13T01:06:02.359Z,929.2
2018-12-13T01:06:15.323Z,929.21
2018-12-13T01:06:28.255Z,929.19
2018-12-13T01:06:47.000Z,929.17
2018-12-13T01:06:59.965Z,929.19
2018-12-13T01:07:12.872Z,929.2
2018-12-13T01:07:25.835Z,929.2
2018-12-13T01:07:38.822Z,929.16
2018-12-13T01:07:51.759Z,929.17
2018-12-13T01:08:04.694Z,929.2
2018-12-13T01:08:17.638Z,929.14
2018-12-13T01:08:30.570Z,929.15
2018-12-13T01:08:43.494Z,929.2
2018-12-13T01:08:56.360Z,929.18
2018-12-13T01:09:09.320Z,929.18
2018-12-13T01:09:22.246Z,929.19
2018-12-13T01:09:35.189Z,929.16
2018-12-13T01:09:48.134Z,929.18
2018-12-13T01:10:01.090Z,929.19
2018-12-13T01:10:14.047Z,929.16
2018-12-13T01:10:26.967Z,929.18
2018-12-13T01:10:40.700Z,929.2
2018-12-13T01:10:53.608Z,929.18
2018-12-13T01:11:06.543Z,929.14
2018-12-13T01:11:19.046Z,929.18
2018-12-13T01:11:31.986Z,929.18
2018-12-13T01:11:44.982Z,929.15
2018-12-13T01:11:57.893Z,929.16
2018-12-13T01:12:10.827Z,929.19
2018-12-13T01:12:23.812Z,929.16
2018-12-13T01:12:37.057Z,929.21
2018-12-13T01:12:49.981Z,929.18
2018-12-13T01:13:02.844Z,929.16
2018-12-13T01:13:15.753Z,929.14
2018-12-13T01:13:28.238Z,929.13
2018-12-13T01:13:41.143Z,929.14
2018-12-13T01:13:54.095Z,929.1
2018-12-13T01:14:06.997Z,929.12
2018-12-13T01:14:19.972Z,929.09
2018-12-13T01:14:32.436Z,929.13
2018-12-13T01:14:45.376Z,929.12
2018-12-13T01:14:58.305Z,929.11
2018-12-13T01:15:11.207Z,929.12
2018-12-13T01:15:23.678Z,929.09
2018-12-13T01:15:36.603Z,929.1
2018-12-13T01:15:49.092Z,929.1
2018-12-13T01:16:01.996Z,929.11
2018-12-13T01:16:14.896Z,929.12
2018-12-13T01:16:27.830Z,929.12
2018-12-13T01:16:40.741Z,929.09
2018-12-13T01:16:53.693Z,929.08
2018-12-13T01:17:06.631Z,929.12
2018-12-13T01:17:19.158Z,929.11
2018-12-13T01:17:32.819Z,929.12
2018-12-13T01:17:45.824Z,929.08
2018-12-13T01:17:58.797Z,929.08
2018-12-13T01:18:11.304Z,929.11
2018-12-13T01:18:23.799Z,929.06
2018-12-13T01:18:36.709Z,929.07
2018-12-13T01:18:49.680Z,929.11
2018-12-13T01:19:02.165Z,929.09
2018-12-13T01:19:15.130Z,929.1
2018-12-13T01:19:28.065Z,929.07
2018-12-13T01:19:40.962Z,929.07
2018-12-13T01:19:53.893Z,929.12
2018-12-13T01:20:06.865Z,929.12
2018-12-13T01:20:19.771Z,929.08
2018-12-13T01:20:32.722Z,929.08
2018-12-13T01:20:45.764Z,929.07
2018-12-13T01:20:58.707Z,929.06
2018-12-13T01:21:11.654Z,929.08
2018-12-13T01:21:30.631Z,929.04
2018-12-13T01:21:43.593Z,929.06
2018-12-13T01:21:56.516Z,929.03
2018-12-13T01:22:09.448Z,929.04
2018-12-13T01:22:22.441Z,929.06
2018-12-13T01:22:35.342Z,929.04
2018-12-13T01:22:48.310Z,929.06
2018-12-13T01:23:01.286Z,929.04
2018-12-13T01:23:14.230Z,929.05
2018-12-13T01:23:27.210Z,929.04
2018-12-13T01:23:40.114Z,929
2018-12-13T01:23:53.043Z,928.99
2018-12-13T01:24:06.000Z,929.02
2018-12-13T01:24:18.900Z,928.98
2018-12-13T01:24:31.873Z,928.97
2018-12-13T01:24:44.816Z,929.02
2018-12-13T01:24:57.786Z,929.02
2018-12-13T01:25:10.704Z,929.02
2018-12-13T01:25:23.622Z,929.02
2018-12-13T01:25:36.542Z,929.01
2018-12-13T01:25:49.498Z,929.02
2018-12-13T01:26:02.409Z,929.02
2018-12-13T01:26:15.334Z,929
2018-12-13T01:26:28.242Z,929
2018-12-13T01:26:41.190Z,929.04
2018-12-13T01:26:54.169Z,928.98
2018-12-13T01:27:07.136Z,929.04
2018-12-13T01:27:20.104Z,929.04
2018-12-13T01:27:33.037Z,929.03
2018-12-13T01:27:45.994Z,929.05
2018-12-13T01:27:58.916Z,929.04
2018-12-13T01:28:11.883Z,929.04
2018-12-13T01:28:24.406Z,929.03
2018-12-13T01:28:37.320Z,929.07
2018-12-13T01:28:50.272Z,929.07
2018-12-13T01:29:03.196Z,929.08
2018-12-13T01:29:16.121Z,929.09
2018-12-13T01:29:29.072Z,929.02
2018-12-13T01:29:41.958Z,929.02
2018-12-13T01:29:54.882Z,929.03
2018-12-13T01:30:07.836Z,929.08
2018-12-13T01:30:20.805Z,929.05
2018-12-13T01:30:33.777Z,929.07
2018-12-13T01:30:46.695Z,929.08
2018-12-13T01:30:59.628Z,929.08
2018-12-13T01:31:12.558Z,929.06
2018-12-13T01:31:25.472Z,929.08
2018-12-13T01:31:38.398Z,929.06
2018-12-13T01:31:51.305Z,929.1
2018-12-13T01:32:04.193Z,929.11
2018-12-13T01:32:17.118Z,929.12
2018-12-13T01:32:30.044Z,929.1
2018-12-13T01:32:43.859Z,929.1
2018-12-13T01:32:56.769Z,929.12
2018-12-13T01:33:09.716Z,929.12
2018-12-13T01:33:22.585Z,929.1
2018-12-13T01:33:35.527Z,929.11
2018-12-13T01:33:48.477Z,929.11
2018-12-13T01:34:01.454Z,929.12
2018-12-13T01:34:14.375Z,929.15
2018-12-13T01:34:27.252Z,929.16
2018-12-13T01:34:40.218Z,929.16
2018-12-13T01:34:53.125Z,929.12
2018-12-13T01:35:06.099Z,929.13
2018-12-13T01:35:19.032Z,929.17
2018-12-13T01:35:31.946Z,929.13
2018-12-13T01:35:44.870Z,929.13
2018-12-13T01:35:57.795Z,929.11
2018-12-13T01:36:10.743Z,929.16
2018-12-13T01:36:23.699Z,929.18
2018-12-13T01:36:36.630Z,929.18
2018-12-13T01:36:53.530Z,929.15
2018-12-13T01:37:06.430Z,929.14
2018-12-13T01:37:19.359Z,929.17
2018-12-13T01:37:32.276Z,929.15
2018-12-13T01:37:45.187Z,929.16
2018-12-13T01:37:58.149Z,929.18
2018-12-13T01:38:11.089Z,929.15
2018-12-13T01:38:24.056Z,929.16
2018-12-13T01:38:36.568Z,929.19
2018-12-13T01:38:49.517Z,929.19
2018-12-13T01:39:02.453Z,929.19
2018-12-13T01:39:15.396Z,929.16
2018-12-13T01:39:27.904Z,929.18
2018-12-13T01:39:40.840Z,929.18
2018-12-13T01:39:53.805Z,929.22
2018-12-13T01:40:06.748Z,929.18
2018-12-13T01:40:19.692Z,929.21
2018-12-13T01:40:32.627Z,929.21
2018-12-13T01:40:45.655Z,929.22
2018-12-13T01:40:58.596Z,929.15
2018-12-13T01:41:11.533Z,929.18
2018-12-13T01:41:24.520Z,929.21
2018-12-13T01:41:37.454Z,929.18
2018-12-13T01:41:50.398Z,929.17
2018-12-13T01:42:03.323Z,929.18
2018-12-13T01:42:16.236Z,929.15
2018-12-13T01:42:29.183Z,929.15
2018-12-13T01:42:42.101Z,929.2
2018-12-13T01:42:55.017Z,929.15
2018-12-13T01:43:07.950Z,929.16
2018-12-13T01:43:20.881Z,929.14
2018-12-13T01:43:33.854Z,929.12
2018-12-13T01:43:46.827Z,929.11
2018-12-13T01:43:59.738Z,929.12
2018-12-13T01:44:12.689Z,929.13
2018-12-13T01:44:25.650Z,929.12
2018-12-13T01:44:38.594Z,929.14
2018-12-13T01:44:51.523Z,929.12
2018-12-13T01:45:04.451Z,929.12
2018-12-13T01:45:17.418Z,929.16
2018-12-13T01:45:30.397Z,929.15
2018-12-13T01:45:43.332Z,929.12
2018-12-13T01:45:56.258Z,929.07
2018-12-13T01:46:09.221Z,929.08
2018-12-13T01:46:22.143Z,929.08
2018-12-13T01:46:35.069Z,929.07
2018-12-13T01:46:48.029Z,929.07
2018-12-13T01:47:00.990Z,929.08
2018-12-13T01:47:13.978Z,929.07
2018-12-13T01:47:26.920Z,929.06
2018-12-13T01:47:40.612Z,929.05
2018-12-13T01:47:53.562Z,929.03
2018-12-13T01:48:06.504Z,929.03
2018-12-13T01:48:19.442Z,929.05
2018-12-13T01:48:32.367Z,929.06
2018-12-13T01:48:45.335Z,929.01
2018-12-13T01:48:58.283Z,929
2018-12-13T01:49:11.231Z,929.03
2018-12-13T01:49:24.151Z,929.02
2018-12-13T01:49:37.064Z,928.99
2018-12-13T01:49:49.540Z,929
2018-12-13T01:50:02.471Z,929.03
2018-12-13T01:50:15.424Z,929.01
2018-12-13T01:50:28.413Z,929
2018-12-13T01:50:41.319Z,929.03
2018-12-13T01:50:54.278Z,929.03
2018-12-13T01:51:07.171Z,929
2018-12-13T01:51:19.696Z,929.02
2018-12-13T01:51:32.612Z,928.99
2018-12-13T01:51:45.574Z,929.01
2018-12-13T01:51:58.066Z,929.02
2018-12-13T01:52:11.013Z,929.02
2018-12-13T01:52:23.946Z,928.97
2018-12-13T01:52:36.902Z,928.95
2018-12-13T01:52:49.831Z,928.96
2018-12-13T01:53:02.777Z,929
2018-12-13T01:53:15.705Z,928.92
2018-12-13T01:53:28.670Z,928.91
2018-12-13T01:53:41.608Z,928.97
2018-12-13T01:53:54.576Z,928.99
2018-12-13T01:54:07.523Z,928.96
2018-12-13T01:54:20.496Z,928.99
2018-12-13T01:54:33.466Z,928.98
2018-12-13T01:54:46.437Z,928.98
2018-12-13T01:54:59.363Z,928.94
2018-12-13T01:55:12.352Z,928.96
2018-12-13T01:55:25.285Z,928.93
2018-12-13T01:55:37.726Z,928.96
2018-12-13T01:55:50.650Z,928.94
2018-12-13T01:56:03.611Z,928.89
2018-12-13T01:56:16.676Z,928.9
2018-12-13T01:56:29.547Z,928.95
2018-12-13T01:56:42.477Z,928.91
2018-12-13T01:56:55.381Z,928.91
2018-12-13T01:57:08.306Z,928.9
2018-12-13T01:57:21.269Z,928.88
2018-12-13T01:57:34.155Z,928.93
2018-12-13T01:57:47.061Z,928.91
2018-12-13T01:58:01.173Z,928.92
2018-12-13T01:58:14.219Z,928.9
2018-12-13T01:58:27.187Z,928.9
2018-12-13T01:58:40.141Z,928.91
2018-12-13T01:58:53.003Z,928.89
2018-12-13T01:59:05.933Z,928.9
2018-12-13T01:59:18.900Z,928.92
2018-12-13T01:59:31.811Z,928.9
2018-12-13T01:59:44.770Z,928.88
2018-12-13T01:59:57.695Z,928.88
2018-12-13T02:00:10.652Z,928.89
2018-12-13T02:00:23.613Z,928.92
2018-12-13T02:00:36.560Z,928.89
2018-12-13T02:00:49.524Z,928.87
2018-12-13T02:01:02.446Z,928.86
2018-12-13T02:01:15.393Z,928.88
2018-12-13T02:01:28.348Z,928.88
2018-12-13T02:01:41.290Z,928.86
2018-12-13T02:01:54.208Z,928.86
2018-12-13T02:02:07.119Z,928.88
2018-12-13T02:02:20.091Z,928.9
2018-12-13T02:02:33.036Z,928.88
2018-12-13T02:02:45.994Z,928.85
2018-12-13T02:02:59.630Z,928.89
2018-12-13T02:03:12.194Z,928.86
2018-12-13T02:03:25.108Z,928.86
2018-12-13T02:03:38.015Z,928.84
2018-12-13T02:03:50.513Z,928.86
2018-12-13T02:04:03.474Z,928.84
2018-12-13T02:04:16.433Z,928.83
2018-12-13T02:04:29.358Z,928.84
2018-12-13T02:04:42.274Z,928.8
2018-12-13T02:04:55.248Z,928.83
2018-12-13T02:05:08.200Z,928.82
2018-12-13T02:05:21.133Z,928.83
2018-12-13T02:05:34.051Z,928.84
2018-12-13T02:05:47.002Z,928.79
2018-12-13T02:05:59.935Z,928.82
2018-12-13T02:06:12.868Z,928.79
2018-12-13T02:06:25.318Z,928.8
2018-12-13T02:06:38.194Z,928.76
2018-12-13T02:06:51.123Z,928.77
2018-12-13T02:07:08.804Z,928.78
2018-12-13T02:07:21.279Z,928.76
2018-12-13T02:07:34.235Z,928.76
2018-12-13T02:07:47.171Z,928.76
2018-12-13T02:08:00.082Z,928.74
2018-12-13T02:08:13.006Z,928.74
2018-12-13T02:08:25.957Z,928.71
2018-12-13T02:08:38.841Z,928.72
2018-12-13T02:08:51.748Z,928.68
2018-12-13T02:09:04.657Z,928.66
2018-12-13T02:09:17.637Z,928.71
2018-12-13T02:09:30.571Z,928.7
2018-12-13T02:09:43.508Z,928.68
2018-12-13T02:09:56.423Z,928.65
2018-12-13T02:10:09.389Z,928.59
2018-12-13T02:10:22.266Z,928.61
2018-12-13T02:10:35.182Z,928.6
2018-12-13T02:10:48.153Z,928.63
2018-12-13T02:11:01.097Z,928.66
2018-12-13T02:11:13.982Z,928.62
2018-12-13T02:11:26.921Z,928.59
2018-12-13T02:11:39.887Z,928.6
2018-12-13T02:11:52.821Z,928.59
2018-12-13T02:12:05.290Z,928.58
2018-12-13T02:12:18.164Z,928.57
2018-12-13T02:12:31.103Z,928.52
2018-12-13T02:12:44.013Z,928.52
2018-12-13T02:12:57.235Z,928.57
2018-12-13T02:13:10.158Z,928.55
2018-12-13T02:13:23.094Z,928.56
2018-12-13T02:13:36.020Z,928.53
2018-12-13T02:13:48.929Z,928.51
2018-12-13T02:14:01.890Z,928.52
2018-12-13T02:14:14.409Z,928.53
2018-12-13T02:14:27.358Z,928.54
2018-12-13T02:14:40.251Z,928.52
2018-12-13T02:14:53.215Z,928.53
2018-12-13T02:15:06.160Z,928.5
2018-12-13T02:15:19.072Z,928.43
2018-12-13T02:15:32.037Z,928.48
2018-12-13T02:15:45.014Z,928.5
2018-12-13T02:15:57.981Z,928.5
2018-12-13T02:16:10.934Z,928.47
2018-12-13T02:16:23.886Z,928.38
2018-12-13T02:16:36.805Z,928.44
2018-12-13T02:16:49.765Z,928.44
2018-12-13T02:17:02.671Z,928.4
2018-12-13T02:17:15.592Z,928.41
2018-12-13T02:17:28.542Z,928.43
2018-12-13T02:17:41.524Z,928.41
2018-12-13T02:17:55.281Z,928.37
2018-12-13T02:18:08.268Z,928.35
2018-12-13T02:18:21.202Z,928.36
2018-12-13T02:18:34.184Z,928.38
2018-12-13T02:18:47.163Z,928.38
2018-12-13T02:19:00.088Z,928.37
2018-12-13T02:19:13.021Z,928.38
2018-12-13T02:19:25.969Z,928.37
2018-12-13T02:19:38.892Z,928.36
2018-12-13T02:19:51.840Z,928.39
2018-12-13T02:20:04.817Z,928.36
2018-12-13T02:20:17.765Z,928.35
2018-12-13T02:20:30.678Z,928.35
2018-12-13T02:20:43.593Z,928.35
2018-12-13T02:20:56.495Z,928.35
2018-12-13T02:21:09.486Z,928.38
2018-12-13T02:21:22.385Z,928.39
2018-12-13T02:21:35.324Z,928.33
2018-12-13T02:21:48.281Z,928.37
2018-12-13T02:22:01.221Z,928.35
2018-12-13T02:22:14.185Z,928.32
2018-12-13T02:22:27.127Z,928.3
2018-12-13T02:22:40.043Z,928.36
2018-12-13T02:22:52.975Z,928.38
2018-12-13T02:23:05.952Z,928.32
2018-12-13T02:23:18.882Z,928.32
2018-12-13T02:23:31.831Z,928.32
2018-12-13T02:23:44.768Z,928.34
2018-12-13T02:23:57.712Z,928.27
2018-12-13T02:24:10.670Z,928.37
2018-12-13T02:24:23.644Z,928.36
2018-12-13T02:24:36.560Z,928.35
2018-12-13T02:24:49.492Z,928.3
2018-12-13T02:25:02.422Z,928.31
2018-12-13T02:25:15.340Z,928.3
2018-12-13T02:25:28.232Z,928.32
2018-12-13T02:25:41.140Z,928.3
2018-12-13T02:25:54.069Z,928.32
2018-12-13T02:26:06.995Z,928.31
2018-12-13T02:26:19.928Z,928.29
2018-12-13T02:26:32.842Z,928.29
2018-12-13T02:26:45.757Z,928.34
2018-12-13T02:26:58.776Z,928.32
2018-12-13T02:27:11.740Z,928.34
2018-12-13T02:27:24.678Z,928.28
2018-12-13T02:27:37.605Z,928.34
2018-12-13T02:27:50.526Z,928.32
2018-12-13T02:28:03.477Z,928.29
2018-12-13T02:28:16.398Z,928.25
2018-12-13T02:28:29.327Z,928.29
2018-12-13T02:28:42.262Z,928.3
2018-12-13T02:28:55.252Z,928.3
2018-12-13T02:29:08.209Z,928.32
2018-12-13T02:29:21.142Z,928.33
2018-12-13T02:29:34.050Z,928.35
2018-12-13T02:29:46.981Z,928.28
2018-12-13T02:29:59.915Z,928.38
2018-12-13T02:30:12.865Z,928.34
2018-12-13T02:30:25.808Z,928.32
2018-12-13T02:30:38.745Z,928.35
2018-12-13T02:30:51.709Z,928.35
2018-12-13T02:31:04.654Z,928.37
2018-12-13T02:31:17.560Z,928.39
2018-12-13T02:31:30.494Z,928.37
2018-12-13T02:31:43.445Z,928.4
2018-12-13T02:31:56.418Z,928.36
2018-12-13T02:32:10.793Z,928.34
2018-12-13T02:32:23.714Z,928.32
2018-12-13T02:32:36.625Z,928.39
2018-12-13T02:32:49.553Z,928.4
2018-12-13T02:33:03.195Z,928.44
2018-12-13T02:33:16.093Z,928.41
2018-12-13T02:33:29.049Z,928.44
2018-12-13T02:33:41.992Z,928.43
2018-12-13T02:33:54.961Z,928.46
2018-12-13T02:34:07.939Z,928.48
2018-12-13T02:34:20.883Z,928.44
2018-12-13T02:34:33.869Z,928.48
2018-12-13T02:34:46.831Z,928.52
2018-12-13T02:34:59.754Z,928.5
2018-12-13T02:35:12.681Z,928.54
2018-12-13T02:35:25.683Z,928.54
2018-12-13T02:35:38.668Z,928.57
2018-12-13T02:35:51.595Z,928.56
2018-12-13T02:36:04.551Z,928.59
2018-12-13T02:36:17.520Z,928.61
2018-12-13T02:36:30.454Z,928.62
2018-12-13T02:36:43.418Z,928.59
2018-12-13T02:36:56.394Z,928.63
2018-12-13T02:37:15.796Z,928.63
2018-12-13T02:37:28.763Z,928.65
2018-12-13T02:37:41.698Z,928.62
2018-12-13T02:37:54.720Z,928.68
2018-12-13T02:38:07.653Z,928.68
2018-12-13T02:38:20.730Z,928.67
2018-12-13T02:38:33.657Z,928.67
2018-12-13T02:38:46.596Z,928.65
2018-12-13T02:38:59.512Z,928.67
2018-12-13T02:39:12.510Z,928.66
2018-12-13T02:39:25.468Z,928.69
2018-12-13T02:39:38.395Z,928.64
2018-12-13T02:39:51.339Z,928.68
2018-12-13T02:40:04.258Z,928.66
2018-12-13T02:40:17.208Z,928.64
2018-12-13T02:40:30.181Z,928.63
2018-12-13T02:40:43.103Z,928.67
2018-12-13T02:40:56.088Z,928.67
2018-12-13T02:41:09.017Z,928.67
2018-12-13T02:41:21.993Z,928.68
2018-12-13T02:41:35.004Z,928.66
2018-12-13T02:41:47.902Z,928.65
2018-12-13T02:42:00.847Z,928.62
2018-12-13T02:42:13.772Z,928.66
2018-12-13T02:42:26.723Z,928.63
2018-12-13T02:42:39.675Z,928.65